sensor_id;sensor_type;location;lat;lon;timestamp;P1;durP1;ratioP1;P2;durP2;ratioP2
61096;SDS011;46977;50.936;6.908;2023-02-27T00:01:14;1.10;;;0.73;;
61096;SDS011;46977;50.936;6.908;2023-02-27T00:04:17;4.22;;;2.30;;
61096;SDS011;46977;50.936;6.908;2023-02-27T00:07:19;2.35;;;0.80;;
61096;SDS011;46977;50.936;6.908;2023-02-27T00:10:28;1.40;;;0.88;;
61096;SDS011;46977;50.936;6.908;2023-02-27T00:13:31;1.15;;;1.05;;
61096;SDS011;46977;50.936;6.908;2023-02-27T00:16:33;1.02;;;0.80;;
61096;SDS011;46977;50.936;6.908;2023-02-27T00:19:36;0.88;;;0.77;;
61096;SDS011;46977;50.936;6.908;2023-02-27T00:22:38;1.40;;;0.90;;
61096;SDS011;46977;50.936;6.908;2023-02-27T00:25:43;2.10;;;0.73;;
61096;SDS011;46977;50.936;6.908;2023-02-27T00:28:45;0.75;;;0.63;;
61096;SDS011;46977;50.936;6.908;2023-02-27T00:31:49;1.52;;;0.93;;
61096;SDS011;46977;50.936;6.908;2023-02-27T00:34:52;1.52;;;0.70;;
61096;SDS011;46977;50.936;6.908;2023-02-27T00:37:54;1.88;;;0.60;;
61096;SDS011;46977;50.936;6.908;2023-02-27T00:40:58;1.52;;;0.80;;
61096;SDS011;46977;50.936;6.908;2023-02-27T00:44:01;2.22;;;0.73;;
61096;SDS011;46977;50.936;6.908;2023-02-27T00:47:04;0.85;;;0.73;;
61096;SDS011;46977;50.936;6.908;2023-02-27T00:50:07;1.45;;;0.93;;
61096;SDS011;46977;50.936;6.908;2023-02-27T00:53:11;0.88;;;0.88;;
61096;SDS011;46977;50.936;6.908;2023-02-27T00:56:15;2.60;;;0.90;;
61096;SDS011;46977;50.936;6.908;2023-02-27T00:59:17;2.13;;;1.00;;
61096;SDS011;46977;50.936;6.908;2023-02-27T01:02:20;1.00;;;0.73;;
61096;SDS011;46977;50.936;6.908;2023-02-27T01:05:23;0.93;;;0.70;;
61096;SDS011;46977;50.936;6.908;2023-02-27T01:08:25;1.67;;;1.00;;
61096;SDS011;46977;50.936;6.908;2023-02-27T01:11:29;1.55;;;0.70;;
61096;SDS011;46977;50.936;6.908;2023-02-27T01:14:34;1.42;;;0.80;;
61096;SDS011;46977;50.936;6.908;2023-02-27T01:17:37;1.48;;;0.90;;
61096;SDS011;46977;50.936;6.908;2023-02-27T01:20:39;2.15;;;0.60;;
61096;SDS011;46977;50.936;6.908;2023-02-27T01:23:42;0.85;;;0.70;;
61096;SDS011;46977;50.936;6.908;2023-02-27T01:26:46;1.55;;;0.80;;
61096;SDS011;46977;50.936;6.908;2023-02-27T01:29:49;1.23;;;0.80;;
61096;SDS011;46977;50.936;6.908;2023-02-27T01:32:51;1.15;;;0.80;;
61096;SDS011;46977;50.936;6.908;2023-02-27T01:35:54;1.15;;;0.70;;
61096;SDS011;46977;50.936;6.908;2023-02-27T01:38:56;1.27;;;1.10;;
61096;SDS011;46977;50.936;6.908;2023-02-27T01:42:00;1.73;;;0.85;;
61096;SDS011;46977;50.936;6.908;2023-02-27T01:45:24;0.95;;;0.80;;
61096;SDS011;46977;50.936;6.908;2023-02-27T01:48:30;1.10;;;1.00;;
61096;SDS011;46977;50.936;6.908;2023-02-27T01:51:35;2.00;;;1.10;;
61096;SDS011;46977;50.936;6.908;2023-02-27T01:54:39;2.35;;;1.05;;
61096;SDS011;46977;50.936;6.908;2023-02-27T01:57:45;2.35;;;0.70;;
61096;SDS011;46977;50.936;6.908;2023-02-27T02:00:48;2.30;;;0.90;;
61096;SDS011;46977;50.936;6.908;2023-02-27T02:03:54;1.35;;;0.88;;
61096;SDS011;46977;50.936;6.908;2023-02-27T02:07:00;3.25;;;0.88;;
61096;SDS011;46977;50.936;6.908;2023-02-27T02:10:04;3.03;;;0.73;;
61096;SDS011;46977;50.936;6.908;2023-02-27T02:13:09;0.82;;;0.80;;
61096;SDS011;46977;50.936;6.908;2023-02-27T02:16:14;1.45;;;0.73;;
61096;SDS011;46977;50.936;6.908;2023-02-27T02:19:33;0.82;;;0.60;;
61096;SDS011;46977;50.936;6.908;2023-02-27T02:26:29;2.50;;;0.90;;
61096;SDS011;46977;50.936;6.908;2023-02-27T02:29:56;1.45;;;0.88;;
61096;SDS011;46977;50.936;6.908;2023-02-27T02:40:30;0.95;;;0.70;;
61096;SDS011;46977;50.936;6.908;2023-02-27T02:43:39;1.42;;;0.80;;
61096;SDS011;46977;50.936;6.908;2023-02-27T02:46:46;3.22;;;1.35;;
61096;SDS011;46977;50.936;6.908;2023-02-27T02:49:54;1.73;;;1.10;;
61096;SDS011;46977;50.936;6.908;2023-02-27T02:53:00;0.82;;;0.60;;
61096;SDS011;46977;50.936;6.908;2023-02-27T02:56:11;2.75;;;0.80;;
61096;SDS011;46977;50.936;6.908;2023-02-27T02:59:19;2.00;;;0.75;;
61096;SDS011;46977;50.936;6.908;2023-02-27T03:02:28;3.22;;;1.23;;
61096;SDS011;46977;50.936;6.908;2023-02-27T03:05:35;1.10;;;0.70;;
61096;SDS011;46977;50.936;6.908;2023-02-27T03:08:40;1.15;;;1.05;;
61096;SDS011;46977;50.936;6.908;2023-02-27T03:11:46;2.00;;;0.60;;
61096;SDS011;46977;50.936;6.908;2023-02-27T03:14:51;1.13;;;1.00;;
61096;SDS011;46977;50.936;6.908;2023-02-27T03:17:58;0.80;;;0.80;;
61096;SDS011;46977;50.936;6.908;2023-02-27T03:21:06;1.83;;;1.13;;
61096;SDS011;46977;50.936;6.908;2023-02-27T03:24:12;1.58;;;0.82;;
61096;SDS011;46977;50.936;6.908;2023-02-27T03:27:19;1.88;;;1.35;;
61096;SDS011;46977;50.936;6.908;2023-02-27T03:30:25;2.05;;;0.90;;
61096;SDS011;46977;50.936;6.908;2023-02-27T03:33:32;2.05;;;1.15;;
61096;SDS011;46977;50.936;6.908;2023-02-27T03:36:39;0.98;;;0.80;;
61096;SDS011;46977;50.936;6.908;2023-02-27T03:39:46;1.17;;;1.08;;
61096;SDS011;46977;50.936;6.908;2023-02-27T03:42:56;2.15;;;1.08;;
61096;SDS011;46977;50.936;6.908;2023-02-27T03:46:25;2.67;;;0.98;;
61096;SDS011;46977;50.936;6.908;2023-02-27T03:49:29;3.25;;;1.45;;
61096;SDS011;46977;50.936;6.908;2023-02-27T03:52:32;2.13;;;1.10;;
61096;SDS011;46977;50.936;6.908;2023-02-27T03:55:35;1.90;;;1.00;;
61096;SDS011;46977;50.936;6.908;2023-02-27T03:58:41;0.88;;;0.82;;
61096;SDS011;46977;50.936;6.908;2023-02-27T04:01:44;1.35;;;1.00;;
61096;SDS011;46977;50.936;6.908;2023-02-27T04:04:47;3.40;;;0.90;;
61096;SDS011;46977;50.936;6.908;2023-02-27T04:08:24;1.25;;;1.15;;
61096;SDS011;46977;50.936;6.908;2023-02-27T04:11:33;1.33;;;1.10;;
61096;SDS011;46977;50.936;6.908;2023-02-27T04:14:41;2.28;;;0.95;;
61096;SDS011;46977;50.936;6.908;2023-02-27T04:17:53;4.20;;;1.10;;
61096;SDS011;46977;50.936;6.908;2023-02-27T04:20:58;1.02;;;0.93;;
61096;SDS011;46977;50.936;6.908;2023-02-27T04:24:08;2.67;;;1.52;;
61096;SDS011;46977;50.936;6.908;2023-02-27T04:30:23;3.60;;;1.00;;
61096;SDS011;46977;50.936;6.908;2023-02-27T04:33:29;2.05;;;1.20;;
61096;SDS011;46977;50.936;6.908;2023-02-27T04:36:37;1.58;;;1.20;;
61096;SDS011;46977;50.936;6.908;2023-02-27T04:39:44;1.17;;;1.05;;
61096;SDS011;46977;50.936;6.908;2023-02-27T04:42:53;1.70;;;1.00;;
61096;SDS011;46977;50.936;6.908;2023-02-27T04:45:58;4.30;;;1.20;;
61096;SDS011;46977;50.936;6.908;2023-02-27T04:49:02;3.35;;;1.25;;
61096;SDS011;46977;50.936;6.908;2023-02-27T04:52:08;1.65;;;1.20;;
61096;SDS011;46977;50.936;6.908;2023-02-27T04:55:13;1.35;;;1.05;;
61096;SDS011;46977;50.936;6.908;2023-02-27T04:58:19;2.50;;;1.20;;
61096;SDS011;46977;50.936;6.908;2023-02-27T05:01:29;1.38;;;1.10;;
61096;SDS011;46977;50.936;6.908;2023-02-27T05:04:36;2.38;;;1.20;;
61096;SDS011;46977;50.936;6.908;2023-02-27T05:07:40;2.47;;;1.33;;
61096;SDS011;46977;50.936;6.908;2023-02-27T05:10:47;1.40;;;1.30;;
61096;SDS011;46977;50.936;6.908;2023-02-27T05:13:53;2.10;;;1.20;;
61096;SDS011;46977;50.936;6.908;2023-02-27T05:16:59;2.92;;;1.55;;
61096;SDS011;46977;50.936;6.908;2023-02-27T05:20:05;3.90;;;1.50;;
61096;SDS011;46977;50.936;6.908;2023-02-27T05:23:29;2.95;;;1.50;;
61096;SDS011;46977;50.936;6.908;2023-02-27T05:26:40;2.05;;;1.20;;
61096;SDS011;46977;50.936;6.908;2023-02-27T05:29:51;2.17;;;1.63;;
61096;SDS011;46977;50.936;6.908;2023-02-27T05:32:56;3.47;;;1.55;;
61096;SDS011;46977;50.936;6.908;2023-02-27T05:36:04;3.10;;;1.75;;
61096;SDS011;46977;50.936;6.908;2023-02-27T05:39:09;3.65;;;1.60;;
61096;SDS011;46977;50.936;6.908;2023-02-27T05:42:13;3.10;;;1.42;;
61096;SDS011;46977;50.936;6.908;2023-02-27T05:45:19;2.78;;;1.27;;
61096;SDS011;46977;50.936;6.908;2023-02-27T05:48:26;1.20;;;1.10;;
61096;SDS011;46977;50.936;6.908;2023-02-27T05:51:32;2.22;;;1.40;;
61096;SDS011;46977;50.936;6.908;2023-02-27T05:54:37;3.08;;;1.55;;
61096;SDS011;46977;50.936;6.908;2023-02-27T05:57:43;2.72;;;1.33;;
61096;SDS011;46977;50.936;6.908;2023-02-27T06:00:48;2.33;;;1.85;;
61096;SDS011;46977;50.936;6.908;2023-02-27T06:03:54;2.97;;;1.67;;
61096;SDS011;46977;50.936;6.908;2023-02-27T06:06:56;2.45;;;1.98;;
61096;SDS011;46977;50.936;6.908;2023-02-27T06:10:00;3.78;;;2.15;;
61096;SDS011;46977;50.936;6.908;2023-02-27T06:13:02;3.45;;;2.78;;
61096;SDS011;46977;50.936;6.908;2023-02-27T06:16:06;2.08;;;1.95;;
61096;SDS011;46977;50.936;6.908;2023-02-27T06:19:12;10.15;;;3.17;;
61096;SDS011;46977;50.936;6.908;2023-02-27T06:22:14;4.55;;;3.33;;
61096;SDS011;46977;50.936;6.908;2023-02-27T06:25:17;5.18;;;2.92;;
61096;SDS011;46977;50.936;6.908;2023-02-27T06:28:19;2.95;;;2.55;;
61096;SDS011;46977;50.936;6.908;2023-02-27T06:31:22;5.80;;;2.25;;
61096;SDS011;46977;50.936;6.908;2023-02-27T06:34:25;2.60;;;2.30;;
61096;SDS011;46977;50.936;6.908;2023-02-27T06:37:28;4.75;;;2.40;;
61096;SDS011;46977;50.936;6.908;2023-02-27T06:40:30;2.38;;;2.08;;
61096;SDS011;46977;50.936;6.908;2023-02-27T06:43:33;3.90;;;2.33;;
61096;SDS011;46977;50.936;6.908;2023-02-27T06:46:37;2.63;;;1.80;;
61096;SDS011;46977;50.936;6.908;2023-02-27T06:49:41;1.98;;;1.77;;
61096;SDS011;46977;50.936;6.908;2023-02-27T06:52:43;2.70;;;1.55;;
61096;SDS011;46977;50.936;6.908;2023-02-27T06:55:45;2.97;;;2.17;;
61096;SDS011;46977;50.936;6.908;2023-02-27T06:58:48;3.33;;;1.80;;
61096;SDS011;46977;50.936;6.908;2023-02-27T07:01:50;1.73;;;1.40;;
61096;SDS011;46977;50.936;6.908;2023-02-27T07:04:54;2.05;;;1.42;;
61096;SDS011;46977;50.936;6.908;2023-02-27T07:07:56;5.95;;;1.20;;
61096;SDS011;46977;50.936;6.908;2023-02-27T07:10:59;4.18;;;1.55;;
61096;SDS011;46977;50.936;6.908;2023-02-27T07:14:01;2.28;;;1.23;;
61096;SDS011;46977;50.936;6.908;2023-02-27T07:17:04;3.45;;;1.15;;
61096;SDS011;46977;50.936;6.908;2023-02-27T07:20:08;1.10;;;0.93;;
61096;SDS011;46977;50.936;6.908;2023-02-27T07:23:12;2.25;;;0.98;;
61096;SDS011;46977;50.936;6.908;2023-02-27T07:26:14;1.35;;;1.08;;
61096;SDS011;46977;50.936;6.908;2023-02-27T07:29:17;1.38;;;0.85;;
61096;SDS011;46977;50.936;6.908;2023-02-27T07:32:19;0.90;;;0.80;;
61096;SDS011;46977;50.936;6.908;2023-02-27T07:35:23;2.42;;;1.00;;
61096;SDS011;46977;50.936;6.908;2023-02-27T07:38:25;1.50;;;0.80;;
61096;SDS011;46977;50.936;6.908;2023-02-27T07:41:29;5.95;;;1.10;;
61096;SDS011;46977;50.936;6.908;2023-02-27T07:44:35;1.13;;;1.00;;
61096;SDS011;46977;50.936;6.908;2023-02-27T07:47:37;2.78;;;1.20;;
61096;SDS011;46977;50.936;6.908;2023-02-27T07:50:41;1.33;;;0.75;;
61096;SDS011;46977;50.936;6.908;2023-02-27T07:53:43;1.35;;;0.85;;
61096;SDS011;46977;50.936;6.908;2023-02-27T07:56:45;1.83;;;0.80;;
61096;SDS011;46977;50.936;6.908;2023-02-27T07:59:48;3.90;;;0.88;;
61096;SDS011;46977;50.936;6.908;2023-02-27T08:02:50;2.92;;;1.45;;
61096;SDS011;46977;50.936;6.908;2023-02-27T08:05:54;1.48;;;1.10;;
61096;SDS011;46977;50.936;6.908;2023-02-27T08:08:56;2.63;;;0.80;;
61096;SDS011;46977;50.936;6.908;2023-02-27T08:11:59;1.92;;;0.80;;
61096;SDS011;46977;50.936;6.908;2023-02-27T08:15:04;1.05;;;0.82;;
61096;SDS011;46977;50.936;6.908;2023-02-27T08:18:08;1.17;;;0.90;;
61096;SDS011;46977;50.936;6.908;2023-02-27T08:21:12;2.10;;;0.68;;
61096;SDS011;46977;50.936;6.908;2023-02-27T08:24:14;1.35;;;0.60;;
61096;SDS011;46977;50.936;6.908;2023-02-27T08:27:17;2.50;;;0.65;;
61096;SDS011;46977;50.936;6.908;2023-02-27T08:30:19;1.00;;;0.73;;
61096;SDS011;46977;50.936;6.908;2023-02-27T08:33:22;2.10;;;0.73;;
61096;SDS011;46977;50.936;6.908;2023-02-27T08:36:26;1.10;;;0.73;;
61096;SDS011;46977;50.936;6.908;2023-02-27T08:39:29;1.98;;;0.90;;
61096;SDS011;46977;50.936;6.908;2023-02-27T08:42:32;1.52;;;0.70;;
61096;SDS011;46977;50.936;6.908;2023-02-27T08:45:34;1.30;;;0.60;;
61096;SDS011;46977;50.936;6.908;2023-02-27T08:48:37;1.65;;;0.60;;
61096;SDS011;46977;50.936;6.908;2023-02-27T08:51:40;1.77;;;0.70;;
61096;SDS011;46977;50.936;6.908;2023-02-27T08:54:43;1.83;;;0.43;;
61096;SDS011;46977;50.936;6.908;2023-02-27T08:57:45;1.48;;;0.50;;
61096;SDS011;46977;50.936;6.908;2023-02-27T09:00:48;1.05;;;0.50;;
61096;SDS011;46977;50.936;6.908;2023-02-27T09:03:50;1.85;;;0.60;;
61096;SDS011;46977;50.936;6.908;2023-02-27T09:06:54;0.70;;;0.57;;
61096;SDS011;46977;50.936;6.908;2023-02-27T09:09:56;0.85;;;0.47;;
61096;SDS011;46977;50.936;6.908;2023-02-27T09:12:58;0.40;;;0.40;;
61096;SDS011;46977;50.936;6.908;2023-02-27T09:16:01;1.20;;;0.40;;
61096;SDS011;46977;50.936;6.908;2023-02-27T09:19:03;0.73;;;0.50;;
61096;SDS011;46977;50.936;6.908;2023-02-27T09:22:07;0.70;;;0.50;;
61096;SDS011;46977;50.936;6.908;2023-02-27T09:25:10;1.88;;;0.60;;
61096;SDS011;46977;50.936;6.908;2023-02-27T09:28:12;1.10;;;0.60;;
61096;SDS011;46977;50.936;6.908;2023-02-27T09:31:15;1.30;;;0.50;;
61096;SDS011;46977;50.936;6.908;2023-02-27T09:34:18;2.08;;;0.60;;
61096;SDS011;46977;50.936;6.908;2023-02-27T09:37:22;0.60;;;0.50;;
61096;SDS011;46977;50.936;6.908;2023-02-27T09:40:26;1.42;;;0.70;;
61096;SDS011;46977;50.936;6.908;2023-02-27T09:43:33;1.13;;;0.57;;
61096;SDS011;46977;50.936;6.908;2023-02-27T09:46:38;2.25;;;0.60;;
61096;SDS011;46977;50.936;6.908;2023-02-27T09:49:48;0.60;;;0.57;;
61096;SDS011;46977;50.936;6.908;2023-02-27T09:52:57;1.10;;;0.70;;
61096;SDS011;46977;50.936;6.908;2023-02-27T09:56:01;1.30;;;0.55;;
61096;SDS011;46977;50.936;6.908;2023-02-27T09:59:09;0.50;;;0.50;;
61096;SDS011;46977;50.936;6.908;2023-02-27T10:02:19;1.05;;;0.50;;
61096;SDS011;46977;50.936;6.908;2023-02-27T10:05:30;1.38;;;0.50;;
61096;SDS011;46977;50.936;6.908;2023-02-27T10:08:39;1.08;;;0.60;;
61096;SDS011;46977;50.936;6.908;2023-02-27T10:11:50;0.77;;;0.40;;
61096;SDS011;46977;50.936;6.908;2023-02-27T10:15:09;1.77;;;0.60;;
61096;SDS011;46977;50.936;6.908;2023-02-27T10:18:15;0.47;;;0.47;;
61096;SDS011;46977;50.936;6.908;2023-02-27T10:21:29;0.60;;;0.60;;
61096;SDS011;46977;50.936;6.908;2023-02-27T10:24:36;0.52;;;0.50;;
61096;SDS011;46977;50.936;6.908;2023-02-27T10:27:42;0.45;;;0.40;;
61096;SDS011;46977;50.936;6.908;2023-02-27T10:30:48;0.70;;;0.38;;
61096;SDS011;46977;50.936;6.908;2023-02-27T10:33:51;1.90;;;0.50;;
61096;SDS011;46977;50.936;6.908;2023-02-27T10:36:54;0.60;;;0.20;;
61096;SDS011;46977;50.936;6.908;2023-02-27T10:39:58;0.50;;;0.20;;
61096;SDS011;46977;50.936;6.908;2023-02-27T10:43:04;0.10;;;0.10;;
61096;SDS011;46977;50.936;6.908;2023-02-27T10:46:11;0.38;;;0.10;;
61096;SDS011;46977;50.936;6.908;2023-02-27T10:49:15;0.20;;;0.20;;
61096;SDS011;46977;50.936;6.908;2023-02-27T10:52:20;0.55;;;0.20;;
61096;SDS011;46977;50.936;6.908;2023-02-27T10:55:24;0.30;;;0.10;;
61096;SDS011;46977;50.936;6.908;2023-02-27T10:58:28;0.47;;;0.10;;
61096;SDS011;46977;50.936;6.908;2023-02-27T11:01:41;0.17;;;0.10;;
61096;SDS011;46977;50.936;6.908;2023-02-27T11:04:45;0.43;;;0.10;;
61096;SDS011;46977;50.936;6.908;2023-02-27T11:07:50;0.20;;;0.10;;
61096;SDS011;46977;50.936;6.908;2023-02-27T11:10:55;0.20;;;0.10;;
61096;SDS011;46977;50.936;6.908;2023-02-27T11:14:01;0.20;;;0.10;;
61096;SDS011;46977;50.936;6.908;2023-02-27T11:17:25;0.10;;;0.10;;
61096;SDS011;46977;50.936;6.908;2023-02-27T11:20:30;0.52;;;0.20;;
61096;SDS011;46977;50.936;6.908;2023-02-27T11:23:34;0.20;;;0.20;;
61096;SDS011;46977;50.936;6.908;2023-02-27T11:26:38;1.27;;;0.20;;
61096;SDS011;46977;50.936;6.908;2023-02-27T11:29:53;0.90;;;0.40;;
61096;SDS011;46977;50.936;6.908;2023-02-27T11:32:57;0.20;;;0.17;;
61096;SDS011;46977;50.936;6.908;2023-02-27T11:36:01;0.40;;;0.20;;
61096;SDS011;46977;50.936;6.908;2023-02-27T11:39:05;0.40;;;0.30;;
61096;SDS011;46977;50.936;6.908;2023-02-27T11:42:13;0.38;;;0.30;;
61096;SDS011;46977;50.936;6.908;2023-02-27T11:45:23;0.50;;;0.30;;
61096;SDS011;46977;50.936;6.908;2023-02-27T11:48:50;0.40;;;0.40;;
61096;SDS011;46977;50.936;6.908;2023-02-27T11:51:56;0.20;;;0.10;;
61096;SDS011;46977;50.936;6.908;2023-02-27T11:55:00;0.40;;;0.30;;
61096;SDS011;46977;50.936;6.908;2023-02-27T11:58:09;1.05;;;0.45;;
61096;SDS011;46977;50.936;6.908;2023-02-27T12:01:15;0.82;;;0.30;;
61096;SDS011;46977;50.936;6.908;2023-02-27T12:04:20;0.52;;;0.40;;
61096;SDS011;46977;50.936;6.908;2023-02-27T12:07:26;0.65;;;0.38;;
61096;SDS011;46977;50.936;6.908;2023-02-27T12:10:32;1.13;;;0.63;;
61096;SDS011;46977;50.936;6.908;2023-02-27T12:13:38;2.58;;;0.40;;
61096;SDS011;46977;50.936;6.908;2023-02-27T12:16:43;0.70;;;0.45;;
61096;SDS011;46977;50.936;6.908;2023-02-27T12:19:50;0.38;;;0.30;;
61096;SDS011;46977;50.936;6.908;2023-02-27T12:26:02;0.45;;;0.45;;
61096;SDS011;46977;50.936;6.908;2023-02-27T12:29:11;0.50;;;0.50;;
61096;SDS011;46977;50.936;6.908;2023-02-27T12:32:19;0.30;;;0.20;;
61096;SDS011;46977;50.936;6.908;2023-02-27T12:35:25;1.20;;;0.50;;
61096;SDS011;46977;50.936;6.908;2023-02-27T12:38:29;2.47;;;0.68;;
61096;SDS011;46977;50.936;6.908;2023-02-27T12:41:37;0.55;;;0.40;;
61096;SDS011;46977;50.936;6.908;2023-02-27T12:48:28;0.30;;;0.30;;
61096;SDS011;46977;50.936;6.908;2023-02-27T12:51:40;0.47;;;0.38;;
61096;SDS011;46977;50.936;6.908;2023-02-27T12:54:47;0.85;;;0.45;;
61096;SDS011;46977;50.936;6.908;2023-02-27T12:58:08;1.00;;;0.30;;
61096;SDS011;46977;50.936;6.908;2023-02-27T13:01:23;0.30;;;0.30;;
61096;SDS011;46977;50.936;6.908;2023-02-27T13:04:36;0.30;;;0.30;;
61096;SDS011;46977;50.936;6.908;2023-02-27T13:07:45;0.90;;;0.40;;
61096;SDS011;46977;50.936;6.908;2023-02-27T13:10:55;1.55;;;0.32;;
61096;SDS011;46977;50.936;6.908;2023-02-27T13:14:00;0.63;;;0.63;;
61096;SDS011;46977;50.936;6.908;2023-02-27T13:17:08;0.77;;;0.30;;
61096;SDS011;46977;50.936;6.908;2023-02-27T13:20:25;1.98;;;0.30;;
61096;SDS011;46977;50.936;6.908;2023-02-27T13:23:32;1.13;;;0.30;;
61096;SDS011;46977;50.936;6.908;2023-02-27T13:26:38;0.20;;;0.20;;
61096;SDS011;46977;50.936;6.908;2023-02-27T13:29:43;1.92;;;0.30;;
61096;SDS011;46977;50.936;6.908;2023-02-27T13:32:51;1.88;;;0.30;;
61096;SDS011;46977;50.936;6.908;2023-02-27T13:36:01;0.63;;;0.20;;
61096;SDS011;46977;50.936;6.908;2023-02-27T13:42:57;1.13;;;0.20;;
61096;SDS011;46977;50.936;6.908;2023-02-27T13:46:03;1.27;;;0.45;;
61096;SDS011;46977;50.936;6.908;2023-02-27T13:49:22;1.23;;;0.22;;
61096;SDS011;46977;50.936;6.908;2023-02-27T13:52:32;0.98;;;0.38;;
61096;SDS011;46977;50.936;6.908;2023-02-27T13:55:35;0.45;;;0.30;;
61096;SDS011;46977;50.936;6.908;2023-02-27T13:58:38;0.30;;;0.20;;
61096;SDS011;46977;50.936;6.908;2023-02-27T14:01:40;0.45;;;0.32;;
61096;SDS011;46977;50.936;6.908;2023-02-27T14:04:52;0.57;;;0.28;;
61096;SDS011;46977;50.936;6.908;2023-02-27T14:07:58;0.20;;;0.20;;
61096;SDS011;46977;50.936;6.908;2023-02-27T14:11:12;0.30;;;0.30;;
61096;SDS011;46977;50.936;6.908;2023-02-27T14:14:34;1.13;;;0.30;;
61096;SDS011;46977;50.936;6.908;2023-02-27T14:17:43;0.88;;;0.30;;
61096;SDS011;46977;50.936;6.908;2023-02-27T14:20:47;0.30;;;0.30;;
61096;SDS011;46977;50.936;6.908;2023-02-27T14:23:52;0.85;;;0.10;;
61096;SDS011;46977;50.936;6.908;2023-02-27T14:26:55;1.95;;;0.13;;
61096;SDS011;46977;50.936;6.908;2023-02-27T14:29:59;0.10;;;0.10;;
61096;SDS011;46977;50.936;6.908;2023-02-27T14:33:09;1.02;;;0.30;;
61096;SDS011;46977;50.936;6.908;2023-02-27T14:36:28;0.20;;;0.20;;
61096;SDS011;46977;50.936;6.908;2023-02-27T14:39:33;0.20;;;0.20;;
61096;SDS011;46977;50.936;6.908;2023-02-27T14:42:41;0.55;;;0.30;;
61096;SDS011;46977;50.936;6.908;2023-02-27T14:45:47;1.35;;;0.35;;
61096;SDS011;46977;50.936;6.908;2023-02-27T14:48:54;0.65;;;0.32;;
61096;SDS011;46977;50.936;6.908;2023-02-27T14:52:08;0.25;;;0.20;;
61096;SDS011;46977;50.936;6.908;2023-02-27T14:55:15;1.60;;;0.40;;
61096;SDS011;46977;50.936;6.908;2023-02-27T14:58:20;3.05;;;0.30;;
61096;SDS011;46977;50.936;6.908;2023-02-27T15:01:23;0.43;;;0.30;;
61096;SDS011;46977;50.936;6.908;2023-02-27T15:04:27;1.30;;;0.40;;
61096;SDS011;46977;50.936;6.908;2023-02-27T15:07:32;0.52;;;0.43;;
61096;SDS011;46977;50.936;6.908;2023-02-27T15:10:36;1.20;;;0.25;;
61096;SDS011;46977;50.936;6.908;2023-02-27T15:13:43;1.73;;;0.40;;
61096;SDS011;46977;50.936;6.908;2023-02-27T15:16:46;1.13;;;0.30;;
61096;SDS011;46977;50.936;6.908;2023-02-27T15:19:49;0.40;;;0.20;;
61096;SDS011;46977;50.936;6.908;2023-02-27T15:22:53;1.27;;;0.32;;
61096;SDS011;46977;50.936;6.908;2023-02-27T15:25:58;1.45;;;0.40;;
61096;SDS011;46977;50.936;6.908;2023-02-27T15:29:01;3.08;;;0.98;;
61096;SDS011;46977;50.936;6.908;2023-02-27T15:32:04;2.15;;;0.45;;
61096;SDS011;46977;50.936;6.908;2023-02-27T15:35:11;3.05;;;0.40;;
61096;SDS011;46977;50.936;6.908;2023-02-27T15:38:23;1.85;;;0.38;;
61096;SDS011;46977;50.936;6.908;2023-02-27T15:41:29;1.17;;;0.50;;
61096;SDS011;46977;50.936;6.908;2023-02-27T15:44:32;1.63;;;0.70;;
61096;SDS011;46977;50.936;6.908;2023-02-27T15:47:37;2.55;;;0.40;;
61096;SDS011;46977;50.936;6.908;2023-02-27T15:50:48;0.40;;;0.40;;
61096;SDS011;46977;50.936;6.908;2023-02-27T15:53:57;6.05;;;0.50;;
61096;SDS011;46977;50.936;6.908;2023-02-27T15:57:03;0.35;;;0.35;;
61096;SDS011;46977;50.936;6.908;2023-02-27T16:00:06;1.13;;;0.35;;
61096;SDS011;46977;50.936;6.908;2023-02-27T16:03:12;0.40;;;0.40;;
61096;SDS011;46977;50.936;6.908;2023-02-27T16:06:18;0.45;;;0.30;;
61096;SDS011;46977;50.936;6.908;2023-02-27T16:09:24;1.42;;;0.38;;
61096;SDS011;46977;50.936;6.908;2023-02-27T16:12:33;1.30;;;0.40;;
61096;SDS011;46977;50.936;6.908;2023-02-27T16:15:37;1.50;;;0.50;;
61096;SDS011;46977;50.936;6.908;2023-02-27T16:18:43;1.13;;;0.40;;
61096;SDS011;46977;50.936;6.908;2023-02-27T16:22:04;1.45;;;0.45;;
61096;SDS011;46977;50.936;6.908;2023-02-27T16:25:08;0.45;;;0.30;;
61096;SDS011;46977;50.936;6.908;2023-02-27T16:28:13;0.40;;;0.40;;
61096;SDS011;46977;50.936;6.908;2023-02-27T16:31:20;2.03;;;0.30;;
61096;SDS011;46977;50.936;6.908;2023-02-27T16:34:26;1.88;;;0.43;;
61096;SDS011;46977;50.936;6.908;2023-02-27T16:37:45;0.30;;;0.30;;
61096;SDS011;46977;50.936;6.908;2023-02-27T16:40:48;0.30;;;0.30;;
61096;SDS011;46977;50.936;6.908;2023-02-27T16:43:53;1.08;;;0.50;;
61096;SDS011;46977;50.936;6.908;2023-02-27T16:46:55;0.45;;;0.40;;
61096;SDS011;46977;50.936;6.908;2023-02-27T16:49:59;1.15;;;0.43;;
61096;SDS011;46977;50.936;6.908;2023-02-27T16:53:02;0.60;;;0.40;;
61096;SDS011;46977;50.936;6.908;2023-02-27T16:56:04;3.33;;;0.63;;
61096;SDS011;46977;50.936;6.908;2023-02-27T16:59:09;0.60;;;0.60;;
61096;SDS011;46977;50.936;6.908;2023-02-27T17:02:27;1.88;;;0.52;;
61096;SDS011;46977;50.936;6.908;2023-02-27T17:05:30;1.08;;;0.40;;
61096;SDS011;46977;50.936;6.908;2023-02-27T17:08:32;0.70;;;0.47;;
61096;SDS011;46977;50.936;6.908;2023-02-27T17:11:35;2.15;;;0.50;;
61096;SDS011;46977;50.936;6.908;2023-02-27T17:14:38;0.43;;;0.35;;
61096;SDS011;46977;50.936;6.908;2023-02-27T17:17:41;1.58;;;0.50;;
61096;SDS011;46977;50.936;6.908;2023-02-27T17:20:43;0.75;;;0.75;;
61096;SDS011;46977;50.936;6.908;2023-02-27T17:23:46;1.75;;;0.60;;
61096;SDS011;46977;50.936;6.908;2023-02-27T17:26:48;1.77;;;0.63;;
61096;SDS011;46977;50.936;6.908;2023-02-27T17:29:54;0.90;;;0.50;;
61096;SDS011;46977;50.936;6.908;2023-02-27T17:32:58;0.65;;;0.65;;
61096;SDS011;46977;50.936;6.908;2023-02-27T17:36:03;1.27;;;0.40;;
61096;SDS011;46977;50.936;6.908;2023-02-27T17:39:09;2.58;;;0.70;;
61096;SDS011;46977;50.936;6.908;2023-02-27T17:42:12;1.10;;;0.52;;
61096;SDS011;46977;50.936;6.908;2023-02-27T17:45:19;1.67;;;0.57;;
61096;SDS011;46977;50.936;6.908;2023-02-27T17:48:22;0.65;;;0.43;;
61096;SDS011;46977;50.936;6.908;2023-02-27T17:51:24;2.40;;;0.50;;
61096;SDS011;46977;50.936;6.908;2023-02-27T17:54:27;2.15;;;0.40;;
61096;SDS011;46977;50.936;6.908;2023-02-27T17:57:29;1.17;;;0.50;;
61096;SDS011;46977;50.936;6.908;2023-02-27T18:00:33;2.78;;;0.52;;
61096;SDS011;46977;50.936;6.908;2023-02-27T18:03:36;0.88;;;0.50;;
61096;SDS011;46977;50.936;6.908;2023-02-27T18:06:39;0.75;;;0.50;;
61096;SDS011;46977;50.936;6.908;2023-02-27T18:09:41;0.82;;;0.70;;
61096;SDS011;46977;50.936;6.908;2023-02-27T18:12:46;1.38;;;0.70;;
61096;SDS011;46977;50.936;6.908;2023-02-27T18:15:50;1.30;;;1.00;;
61096;SDS011;46977;50.936;6.908;2023-02-27T18:18:52;1.77;;;0.80;;
61096;SDS011;46977;50.936;6.908;2023-02-27T18:21:55;1.20;;;0.77;;
61096;SDS011;46977;50.936;6.908;2023-02-27T18:24:57;1.92;;;0.90;;
61096;SDS011;46977;50.936;6.908;2023-02-27T18:28:00;1.33;;;0.70;;
61096;SDS011;46977;50.936;6.908;2023-02-27T18:31:04;2.35;;;0.80;;
61096;SDS011;46977;50.936;6.908;2023-02-27T18:34:06;2.28;;;0.80;;
61096;SDS011;46977;50.936;6.908;2023-02-27T18:37:09;1.48;;;0.73;;
61096;SDS011;46977;50.936;6.908;2023-02-27T18:40:12;1.48;;;0.68;;
61096;SDS011;46977;50.936;6.908;2023-02-27T18:43:16;0.60;;;0.60;;
61096;SDS011;46977;50.936;6.908;2023-02-27T18:46:19;0.82;;;0.70;;
61096;SDS011;46977;50.936;6.908;2023-02-27T18:49:22;2.47;;;0.75;;
61096;SDS011;46977;50.936;6.908;2023-02-27T18:52:24;1.55;;;0.90;;
61096;SDS011;46977;50.936;6.908;2023-02-27T18:55:27;1.23;;;0.90;;
61096;SDS011;46977;50.936;6.908;2023-02-27T18:58:29;1.52;;;0.85;;
61096;SDS011;46977;50.936;6.908;2023-02-27T19:01:34;1.15;;;1.05;;
61096;SDS011;46977;50.936;6.908;2023-02-27T19:04:37;2.60;;;0.63;;